Blackstone, VA

8:43 AM EDT on September 01, 2015 (GMT -0400)
Modest Creek Rd | | Change Station
CLOSE
Current Station
Personal Weather Station
Location: Victoria, VA
Elevation: 485 ft
Nearby Weather Stations

Elev 485 ft 37.05 °N, 78.18 °W | Updated 21 seconds ago

Overcast
Overcast
68.5 °F
Feels Like 68.5 °F
N
0.0
Wind Variable Wind from SE
Gusts 0.0 mph

Today
High -- | Low -- °F
--% Chance of Precip.
Yesterday
High -- | Low -- °F
Precip. -- in
6:42 AM 7:40 PM
Waning Gibbous, 89% visible
Pressure 30.10 in
Visibility 8.0 miles
Clouds Overcast 300 ft
Dew Point Not available.
Humidity Not available.
Rainfall 0.00 in
Snow Depth Not available.
UV 0 out of 12
Pollen 9.10 out of 12
Air Quality Not available.
Flu Activity Not available.
METAR KFCI 011155Z AUTO 25003KT 8SM OVC003 21/15 A3010 RMK AO1 10220 20210 52014
Pressure 30.10 in
Visibility 8.0 miles
Clouds Overcast 300 ft
Dew Point Not available.
Humidity Not available.
Rainfall 0.00 in
Snow Depth Not available.
UV 0 out of 12
Pollen 9.10 out of 12
Air Quality Not available.
Flu Activity Not available.
METAR KFCI 011155Z AUTO 25003KT 8SM OVC003 21/15 A3010 RMK AO1 10220 20210 52014

10-Day Weather Forecast

×

Almanac

Astronomy

Sep. 01, 2015 Rise Set
Actual Time
Civil Twilight
Nautical Twilight
Astronomical Twilight
Moon
Length of Visible Light
Length of Day
Tomorrow will be .
, % of the Moon is Illuminated

Today's Extremes

State Highs State Lows

Community

WunderPhotos

Upload Photos

1,851,510 photos uploaded!

WunderBlogs® & News

Nearby

Air Quality

  Air Quality AQ Index Pollutant
Not available.

Snow Depth

Station Depth Elevation

Earthquake Activity

City Distance Mag. Time & Date
Minimum magnitude displayed is 2.5.

Coastal Water Temperatures

Place Temperature

Stations

Nearby Weather Stations

Station Location Temp. Windchill Dew Point Humidity Wind Precip. Elev Updated Type